sensor_id;sensor_type;location;lat;lon;timestamp;P1;durP1;ratioP1;P2;durP2;ratioP2
2998;SDS011;1509;51.964;7.628;2022-12-15T00:01:46;18.67;;;13.00;;
2998;SDS011;1509;51.964;7.628;2022-12-15T00:04:30;18.70;;;13.47;;
2998;SDS011;1509;51.964;7.628;2022-12-15T00:07:14;21.60;;;13.93;;
2998;SDS011;1509;51.964;7.628;2022-12-15T00:09:58;25.17;;;14.03;;
2998;SDS011;1509;51.964;7.628;2022-12-15T00:12:42;26.60;;;15.03;;
2998;SDS011;1509;51.964;7.628;2022-12-15T00:15:27;20.67;;;14.47;;
2998;SDS011;1509;51.964;7.628;2022-12-15T00:18:11;22.33;;;13.83;;
2998;SDS011;1509;51.964;7.628;2022-12-15T00:20:58;19.03;;;15.27;;
2998;SDS011;1509;51.964;7.628;2022-12-15T00:23:43;17.37;;;11.80;;
2998;SDS011;1509;51.964;7.628;2022-12-15T00:26:27;15.33;;;12.80;;
2998;SDS011;1509;51.964;7.628;2022-12-15T00:29:11;20.57;;;13.37;;
2998;SDS011;1509;51.964;7.628;2022-12-15T00:31:55;24.67;;;13.50;;
2998;SDS011;1509;51.964;7.628;2022-12-15T00:34:43;18.53;;;12.70;;
2998;SDS011;1509;51.964;7.628;2022-12-15T00:37:27;24.93;;;12.43;;
2998;SDS011;1509;51.964;7.628;2022-12-15T00:40:11;17.47;;;12.33;;
2998;SDS011;1509;51.964;7.628;2022-12-15T00:42:37;19.77;;;14.03;;
2998;SDS011;1509;51.964;7.628;2022-12-15T00:45:03;20.77;;;13.40;;
2998;SDS011;1509;51.964;7.628;2022-12-15T00:47:30;21.97;;;16.33;;
2998;SDS011;1509;51.964;7.628;2022-12-15T00:49:56;24.90;;;15.17;;
2998;SDS011;1509;51.964;7.628;2022-12-15T00:52:58;21.43;;;13.13;;
2998;SDS011;1509;51.964;7.628;2022-12-15T00:55:42;18.40;;;11.93;;
2998;SDS011;1509;51.964;7.628;2022-12-15T00:58:26;21.43;;;14.57;;
2998;SDS011;1509;51.964;7.628;2022-12-15T01:01:09;16.30;;;11.77;;
2998;SDS011;1509;51.964;7.628;2022-12-15T01:03:54;16.73;;;12.00;;
2998;SDS011;1509;51.964;7.628;2022-12-15T01:06:38;16.67;;;11.10;;
2998;SDS011;1509;51.964;7.628;2022-12-15T01:09:25;17.70;;;11.50;;
2998;SDS011;1509;51.964;7.628;2022-12-15T01:12:09;26.40;;;13.43;;
2998;SDS011;1509;51.964;7.628;2022-12-15T01:14:53;16.20;;;12.80;;
2998;SDS011;1509;51.964;7.628;2022-12-15T01:17:37;15.57;;;12.00;;
2998;SDS011;1509;51.964;7.628;2022-12-15T01:20:21;22.33;;;12.37;;
2998;SDS011;1509;51.964;7.628;2022-12-15T01:22:48;31.07;;;15.10;;
2998;SDS011;1509;51.964;7.628;2022-12-15T01:25:20;17.83;;;12.30;;
2998;SDS011;1509;51.964;7.628;2022-12-15T01:27:47;21.57;;;14.40;;
2998;SDS011;1509;51.964;7.628;2022-12-15T01:30:14;19.33;;;12.47;;
2998;SDS011;1509;51.964;7.628;2022-12-15T01:32:42;18.93;;;12.40;;
2998;SDS011;1509;51.964;7.628;2022-12-15T01:35:09;18.90;;;11.80;;
2998;SDS011;1509;51.964;7.628;2022-12-15T01:37:35;20.63;;;13.77;;
2998;SDS011;1509;51.964;7.628;2022-12-15T01:40:02;17.47;;;11.80;;
2998;SDS011;1509;51.964;7.628;2022-12-15T01:42:47;20.80;;;13.00;;
2998;SDS011;1509;51.964;7.628;2022-12-15T01:47:48;24.43;;;12.40;;
2998;SDS011;1509;51.964;7.628;2022-12-15T01:50:19;19.53;;;12.37;;
2998;SDS011;1509;51.964;7.628;2022-12-15T01:52:46;20.30;;;13.57;;
2998;SDS011;1509;51.964;7.628;2022-12-15T01:55:12;14.87;;;11.67;;
2998;SDS011;1509;51.964;7.628;2022-12-15T01:57:39;18.90;;;12.13;;
2998;SDS011;1509;51.964;7.628;2022-12-15T02:00:06;19.70;;;15.20;;
2998;SDS011;1509;51.964;7.628;2022-12-15T02:02:32;22.60;;;12.43;;
2998;SDS011;1509;51.964;7.628;2022-12-15T02:05:00;21.70;;;11.50;;
2998;SDS011;1509;51.964;7.628;2022-12-15T02:07:28;17.50;;;12.67;;
2998;SDS011;1509;51.964;7.628;2022-12-15T02:09:54;20.37;;;12.40;;
2998;SDS011;1509;51.964;7.628;2022-12-15T02:15:16;15.17;;;11.10;;
2998;SDS011;1509;51.964;7.628;2022-12-15T02:21:16;24.70;;;11.60;;
2998;SDS011;1509;51.964;7.628;2022-12-15T02:31:59;22.10;;;12.17;;
2998;SDS011;1509;51.964;7.628;2022-12-15T02:34:50;19.80;;;12.47;;
2998;SDS011;1509;51.964;7.628;2022-12-15T02:39:58;17.30;;;10.97;;
2998;SDS011;1509;51.964;7.628;2022-12-15T02:42:24;19.67;;;12.60;;
2998;SDS011;1509;51.964;7.628;2022-12-15T03:03:56;18.60;;;11.33;;
2998;SDS011;1509;51.964;7.628;2022-12-15T03:06:26;16.07;;;13.20;;
2998;SDS011;1509;51.964;7.628;2022-12-15T03:08:52;19.13;;;11.00;;
2998;SDS011;1509;51.964;7.628;2022-12-15T03:11:18;15.13;;;11.10;;
2998;SDS011;1509;51.964;7.628;2022-12-15T03:13:43;17.07;;;13.37;;
2998;SDS011;1509;51.964;7.628;2022-12-15T03:16:09;22.67;;;13.87;;
2998;SDS011;1509;51.964;7.628;2022-12-15T03:18:35;20.27;;;12.43;;
2998;SDS011;1509;51.964;7.628;2022-12-15T03:21:00;13.73;;;11.33;;
2998;SDS011;1509;51.964;7.628;2022-12-15T03:23:26;24.20;;;14.20;;
2998;SDS011;1509;51.964;7.628;2022-12-15T03:25:52;26.40;;;13.40;;
2998;SDS011;1509;51.964;7.628;2022-12-15T03:28:21;23.03;;;14.27;;
2998;SDS011;1509;51.964;7.628;2022-12-15T03:30:47;18.23;;;11.27;;
2998;SDS011;1509;51.964;7.628;2022-12-15T03:33:13;18.83;;;12.80;;
2998;SDS011;1509;51.964;7.628;2022-12-15T03:35:39;20.87;;;12.43;;
2998;SDS011;1509;51.964;7.628;2022-12-15T03:38:05;19.93;;;12.53;;
2998;SDS011;1509;51.964;7.628;2022-12-15T03:40:30;16.30;;;12.27;;
2998;SDS011;1509;51.964;7.628;2022-12-15T03:42:56;18.83;;;10.77;;
2998;SDS011;1509;51.964;7.628;2022-12-15T03:45:23;15.27;;;12.03;;
2998;SDS011;1509;51.964;7.628;2022-12-15T03:47:50;21.77;;;11.00;;
2998;SDS011;1509;51.964;7.628;2022-12-15T03:50:21;15.17;;;10.70;;
2998;SDS011;1509;51.964;7.628;2022-12-15T03:52:53;14.60;;;11.03;;
2998;SDS011;1509;51.964;7.628;2022-12-15T03:55:23;21.03;;;13.73;;
2998;SDS011;1509;51.964;7.628;2022-12-15T03:57:49;18.77;;;12.87;;
2998;SDS011;1509;51.964;7.628;2022-12-15T04:00:17;21.80;;;12.40;;
2998;SDS011;1509;51.964;7.628;2022-12-15T04:02:43;17.00;;;12.80;;
2998;SDS011;1509;51.964;7.628;2022-12-15T04:05:21;28.50;;;13.43;;
2998;SDS011;1509;51.964;7.628;2022-12-15T04:07:55;21.63;;;13.30;;
2998;SDS011;1509;51.964;7.628;2022-12-15T04:10:22;18.10;;;12.10;;
2998;SDS011;1509;51.964;7.628;2022-12-15T04:12:55;17.97;;;13.10;;
2998;SDS011;1509;51.964;7.628;2022-12-15T04:15:32;19.30;;;11.50;;
2998;SDS011;1509;51.964;7.628;2022-12-15T04:17:59;18.87;;;12.63;;
2998;SDS011;1509;51.964;7.628;2022-12-15T04:20:26;16.93;;;11.60;;
2998;SDS011;1509;51.964;7.628;2022-12-15T04:22:52;25.73;;;14.60;;
2998;SDS011;1509;51.964;7.628;2022-12-15T04:25:19;24.53;;;13.57;;
2998;SDS011;1509;51.964;7.628;2022-12-15T04:28:05;20.23;;;12.83;;
2998;SDS011;1509;51.964;7.628;2022-12-15T04:30:55;18.97;;;13.43;;
2998;SDS011;1509;51.964;7.628;2022-12-15T04:33:44;20.00;;;14.57;;
2998;SDS011;1509;51.964;7.628;2022-12-15T04:36:31;20.77;;;12.60;;
2998;SDS011;1509;51.964;7.628;2022-12-15T04:39:17;18.20;;;13.73;;
2998;SDS011;1509;51.964;7.628;2022-12-15T04:42:01;28.00;;;15.70;;
2998;SDS011;1509;51.964;7.628;2022-12-15T04:44:46;22.57;;;15.43;;
2998;SDS011;1509;51.964;7.628;2022-12-15T04:47:32;21.13;;;13.37;;
2998;SDS011;1509;51.964;7.628;2022-12-15T04:50:16;22.07;;;14.97;;
2998;SDS011;1509;51.964;7.628;2022-12-15T04:53:11;22.20;;;13.37;;
2998;SDS011;1509;51.964;7.628;2022-12-15T04:55:57;20.80;;;14.40;;
2998;SDS011;1509;51.964;7.628;2022-12-15T04:58:42;19.80;;;15.20;;
2998;SDS011;1509;51.964;7.628;2022-12-15T05:01:26;20.97;;;13.90;;
2998;SDS011;1509;51.964;7.628;2022-12-15T05:04:10;25.00;;;14.53;;
2998;SDS011;1509;51.964;7.628;2022-12-15T05:06:54;26.00;;;15.27;;
2998;SDS011;1509;51.964;7.628;2022-12-15T05:09:39;23.33;;;14.47;;
2998;SDS011;1509;51.964;7.628;2022-12-15T05:12:23;19.57;;;13.83;;
2998;SDS011;1509;51.964;7.628;2022-12-15T05:15:07;17.80;;;13.97;;
2998;SDS011;1509;51.964;7.628;2022-12-15T05:17:51;25.10;;;14.53;;
2998;SDS011;1509;51.964;7.628;2022-12-15T05:20:36;28.43;;;16.70;;
2998;SDS011;1509;51.964;7.628;2022-12-15T05:23:20;20.83;;;16.50;;
2998;SDS011;1509;51.964;7.628;2022-12-15T05:26:04;27.30;;;15.43;;
2998;SDS011;1509;51.964;7.628;2022-12-15T05:28:48;20.93;;;16.10;;
2998;SDS011;1509;51.964;7.628;2022-12-15T05:31:33;27.20;;;16.17;;
2998;SDS011;1509;51.964;7.628;2022-12-15T05:34:13;24.20;;;15.73;;
2998;SDS011;1509;51.964;7.628;2022-12-15T05:36:40;20.97;;;15.00;;
2998;SDS011;1509;51.964;7.628;2022-12-15T05:39:05;21.63;;;17.87;;
2998;SDS011;1509;51.964;7.628;2022-12-15T05:41:31;23.10;;;16.10;;
2998;SDS011;1509;51.964;7.628;2022-12-15T05:43:57;25.30;;;15.87;;
2998;SDS011;1509;51.964;7.628;2022-12-15T05:46:22;18.67;;;14.57;;
2998;SDS011;1509;51.964;7.628;2022-12-15T05:48:48;25.97;;;16.37;;
2998;SDS011;1509;51.964;7.628;2022-12-15T05:51:14;30.57;;;17.03;;
2998;SDS011;1509;51.964;7.628;2022-12-15T05:53:39;25.63;;;17.40;;
2998;SDS011;1509;51.964;7.628;2022-12-15T05:56:07;25.97;;;14.80;;
2998;SDS011;1509;51.964;7.628;2022-12-15T05:58:37;25.17;;;15.47;;
2998;SDS011;1509;51.964;7.628;2022-12-15T06:01:11;21.03;;;15.20;;
2998;SDS011;1509;51.964;7.628;2022-12-15T06:03:39;22.73;;;14.70;;
2998;SDS011;1509;51.964;7.628;2022-12-15T06:06:05;23.40;;;15.87;;
2998;SDS011;1509;51.964;7.628;2022-12-15T06:08:33;20.97;;;15.80;;
2998;SDS011;1509;51.964;7.628;2022-12-15T06:10:59;27.07;;;17.70;;
2998;SDS011;1509;51.964;7.628;2022-12-15T06:13:26;37.80;;;17.47;;
2998;SDS011;1509;51.964;7.628;2022-12-15T06:16:05;21.23;;;15.33;;
2998;SDS011;1509;51.964;7.628;2022-12-15T06:18:35;24.40;;;14.37;;
2998;SDS011;1509;51.964;7.628;2022-12-15T06:21:06;22.00;;;17.20;;
2998;SDS011;1509;51.964;7.628;2022-12-15T06:23:34;26.50;;;15.87;;
2998;SDS011;1509;51.964;7.628;2022-12-15T06:26:07;24.20;;;17.37;;
2998;SDS011;1509;51.964;7.628;2022-12-15T06:28:32;25.30;;;16.90;;
2998;SDS011;1509;51.964;7.628;2022-12-15T06:31:00;29.10;;;16.60;;
2998;SDS011;1509;51.964;7.628;2022-12-15T06:33:27;28.30;;;17.40;;
2998;SDS011;1509;51.964;7.628;2022-12-15T06:35:54;27.63;;;16.80;;
2998;SDS011;1509;51.964;7.628;2022-12-15T06:38:20;26.97;;;19.30;;
2998;SDS011;1509;51.964;7.628;2022-12-15T06:40:53;32.90;;;18.23;;
2998;SDS011;1509;51.964;7.628;2022-12-15T06:43:22;26.47;;;18.40;;
2998;SDS011;1509;51.964;7.628;2022-12-15T06:45:48;28.20;;;17.73;;
2998;SDS011;1509;51.964;7.628;2022-12-15T06:48:14;28.87;;;19.30;;
2998;SDS011;1509;51.964;7.628;2022-12-15T06:50:40;24.27;;;17.27;;
2998;SDS011;1509;51.964;7.628;2022-12-15T06:53:06;34.93;;;19.00;;
2998;SDS011;1509;51.964;7.628;2022-12-15T06:55:32;27.93;;;18.80;;
2998;SDS011;1509;51.964;7.628;2022-12-15T06:57:57;29.93;;;19.37;;
2998;SDS011;1509;51.964;7.628;2022-12-15T07:00:23;29.60;;;18.40;;
2998;SDS011;1509;51.964;7.628;2022-12-15T07:02:49;33.10;;;20.47;;
2998;SDS011;1509;51.964;7.628;2022-12-15T07:05:14;22.53;;;17.57;;
2998;SDS011;1509;51.964;7.628;2022-12-15T07:07:40;28.70;;;18.40;;
2998;SDS011;1509;51.964;7.628;2022-12-15T07:10:06;34.73;;;18.93;;
2998;SDS011;1509;51.964;7.628;2022-12-15T07:12:32;27.03;;;17.27;;
2998;SDS011;1509;51.964;7.628;2022-12-15T07:14:57;31.60;;;19.10;;
2998;SDS011;1509;51.964;7.628;2022-12-15T07:17:23;23.60;;;17.17;;
2998;SDS011;1509;51.964;7.628;2022-12-15T07:19:49;23.03;;;17.53;;
2998;SDS011;1509;51.964;7.628;2022-12-15T07:22:14;30.87;;;19.20;;
2998;SDS011;1509;51.964;7.628;2022-12-15T07:24:40;31.80;;;19.60;;
2998;SDS011;1509;51.964;7.628;2022-12-15T07:27:05;34.47;;;18.97;;
2998;SDS011;1509;51.964;7.628;2022-12-15T07:29:31;21.13;;;16.03;;
2998;SDS011;1509;51.964;7.628;2022-12-15T07:31:56;22.60;;;17.53;;
2998;SDS011;1509;51.964;7.628;2022-12-15T07:34:24;27.47;;;18.43;;
2998;SDS011;1509;51.964;7.628;2022-12-15T07:36:50;33.53;;;19.30;;
2998;SDS011;1509;51.964;7.628;2022-12-15T07:39:15;26.20;;;19.70;;
2998;SDS011;1509;51.964;7.628;2022-12-15T07:41:41;32.87;;;20.10;;
2998;SDS011;1509;51.964;7.628;2022-12-15T07:44:07;25.33;;;18.40;;
2998;SDS011;1509;51.964;7.628;2022-12-15T07:46:32;32.47;;;17.80;;
2998;SDS011;1509;51.964;7.628;2022-12-15T07:48:58;29.37;;;20.07;;
2998;SDS011;1509;51.964;7.628;2022-12-15T07:51:24;32.10;;;18.43;;
2998;SDS011;1509;51.964;7.628;2022-12-15T07:53:49;31.87;;;17.60;;
2998;SDS011;1509;51.964;7.628;2022-12-15T07:56:15;25.33;;;18.30;;
2998;SDS011;1509;51.964;7.628;2022-12-15T07:58:41;37.23;;;18.80;;
2998;SDS011;1509;51.964;7.628;2022-12-15T08:01:09;30.00;;;19.30;;
2998;SDS011;1509;51.964;7.628;2022-12-15T08:03:36;42.00;;;20.87;;
2998;SDS011;1509;51.964;7.628;2022-12-15T08:06:06;28.00;;;18.30;;
2998;SDS011;1509;51.964;7.628;2022-12-15T08:08:33;29.63;;;19.47;;
2998;SDS011;1509;51.964;7.628;2022-12-15T08:11:03;28.60;;;18.77;;
2998;SDS011;1509;51.964;7.628;2022-12-15T08:13:32;34.53;;;20.87;;
2998;SDS011;1509;51.964;7.628;2022-12-15T08:15:59;26.20;;;17.70;;
2998;SDS011;1509;51.964;7.628;2022-12-15T08:18:25;33.63;;;20.17;;
2998;SDS011;1509;51.964;7.628;2022-12-15T08:20:50;29.67;;;19.00;;
2998;SDS011;1509;51.964;7.628;2022-12-15T08:23:16;25.90;;;19.30;;
2998;SDS011;1509;51.964;7.628;2022-12-15T08:25:41;27.33;;;18.57;;
2998;SDS011;1509;51.964;7.628;2022-12-15T08:28:07;28.07;;;17.70;;
2998;SDS011;1509;51.964;7.628;2022-12-15T08:30:33;35.27;;;19.47;;
2998;SDS011;1509;51.964;7.628;2022-12-15T08:33:02;32.77;;;20.87;;
2998;SDS011;1509;51.964;7.628;2022-12-15T08:35:28;37.60;;;19.90;;
2998;SDS011;1509;51.964;7.628;2022-12-15T08:37:54;33.20;;;21.50;;
2998;SDS011;1509;51.964;7.628;2022-12-15T08:40:19;30.23;;;20.60;;
2998;SDS011;1509;51.964;7.628;2022-12-15T08:42:45;30.63;;;20.33;;
2998;SDS011;1509;51.964;7.628;2022-12-15T08:45:11;32.40;;;20.97;;
2998;SDS011;1509;51.964;7.628;2022-12-15T08:47:37;34.43;;;21.50;;
2998;SDS011;1509;51.964;7.628;2022-12-15T08:50:04;28.13;;;19.97;;
2998;SDS011;1509;51.964;7.628;2022-12-15T08:52:33;40.37;;;21.27;;
2998;SDS011;1509;51.964;7.628;2022-12-15T08:54:58;40.73;;;22.27;;
2998;SDS011;1509;51.964;7.628;2022-12-15T08:57:24;42.97;;;21.83;;
2998;SDS011;1509;51.964;7.628;2022-12-15T08:59:52;33.27;;;22.70;;
2998;SDS011;1509;51.964;7.628;2022-12-15T09:02:20;32.03;;;23.50;;
2998;SDS011;1509;51.964;7.628;2022-12-15T09:04:46;42.10;;;24.07;;
2998;SDS011;1509;51.964;7.628;2022-12-15T09:07:11;31.63;;;21.87;;
2998;SDS011;1509;51.964;7.628;2022-12-15T09:09:37;36.03;;;21.10;;
2998;SDS011;1509;51.964;7.628;2022-12-15T09:12:03;30.50;;;21.10;;
2998;SDS011;1509;51.964;7.628;2022-12-15T09:14:29;29.77;;;19.33;;
2998;SDS011;1509;51.964;7.628;2022-12-15T09:16:55;32.93;;;22.97;;
2998;SDS011;1509;51.964;7.628;2022-12-15T09:19:20;32.47;;;20.63;;
2998;SDS011;1509;51.964;7.628;2022-12-15T09:21:46;31.57;;;20.63;;
2998;SDS011;1509;51.964;7.628;2022-12-15T09:24:12;32.33;;;21.30;;
2998;SDS011;1509;51.964;7.628;2022-12-15T09:26:38;33.27;;;21.93;;
2998;SDS011;1509;51.964;7.628;2022-12-15T09:29:04;29.40;;;22.10;;
2998;SDS011;1509;51.964;7.628;2022-12-15T09:31:31;34.30;;;21.47;;
2998;SDS011;1509;51.964;7.628;2022-12-15T09:34:00;29.53;;;20.77;;
2998;SDS011;1509;51.964;7.628;2022-12-15T09:36:26;35.13;;;22.57;;
2998;SDS011;1509;51.964;7.628;2022-12-15T09:38:53;41.03;;;26.23;;
2998;SDS011;1509;51.964;7.628;2022-12-15T09:41:22;45.67;;;22.13;;
2998;SDS011;1509;51.964;7.628;2022-12-15T09:43:59;37.23;;;23.20;;
2998;SDS011;1509;51.964;7.628;2022-12-15T09:49:49;35.00;;;20.67;;
2998;SDS011;1509;51.964;7.628;2022-12-15T09:52:29;36.13;;;23.00;;
2998;SDS011;1509;51.964;7.628;2022-12-15T09:55:28;34.40;;;23.23;;
2998;SDS011;1509;51.964;7.628;2022-12-15T09:57:56;37.67;;;20.80;;
2998;SDS011;1509;51.964;7.628;2022-12-15T10:06:09;42.23;;;23.13;;
2998;SDS011;1509;51.964;7.628;2022-12-15T10:08:42;38.23;;;22.63;;
2998;SDS011;1509;51.964;7.628;2022-12-15T10:11:15;31.60;;;22.10;;
2998;SDS011;1509;51.964;7.628;2022-12-15T10:16:44;39.20;;;21.67;;
2998;SDS011;1509;51.964;7.628;2022-12-15T10:19:13;40.07;;;20.30;;
2998;SDS011;1509;51.964;7.628;2022-12-15T10:21:44;37.17;;;22.73;;
2998;SDS011;1509;51.964;7.628;2022-12-15T10:24:15;33.03;;;21.10;;
2998;SDS011;1509;51.964;7.628;2022-12-15T10:26:45;32.27;;;21.83;;
2998;SDS011;1509;51.964;7.628;2022-12-15T10:29:21;35.50;;;24.17;;
2998;SDS011;1509;51.964;7.628;2022-12-15T10:34:31;44.67;;;23.57;;
2998;SDS011;1509;51.964;7.628;2022-12-15T10:36:58;38.53;;;23.07;;
2998;SDS011;1509;51.964;7.628;2022-12-15T10:39:35;33.10;;;22.50;;
2998;SDS011;1509;51.964;7.628;2022-12-15T10:44:42;35.73;;;22.93;;
2998;SDS011;1509;51.964;7.628;2022-12-15T10:47:23;36.30;;;22.80;;
2998;SDS011;1509;51.964;7.628;2022-12-15T10:49:50;34.10;;;23.40;;
2998;SDS011;1509;51.964;7.628;2022-12-15T10:54:52;38.13;;;23.07;;
2998;SDS011;1509;51.964;7.628;2022-12-15T10:59:46;36.93;;;22.77;;
2998;SDS011;1509;51.964;7.628;2022-12-15T11:07:31;35.90;;;23.07;;
2998;SDS011;1509;51.964;7.628;2022-12-15T11:10:00;37.23;;;24.40;;
2998;SDS011;1509;51.964;7.628;2022-12-15T11:12:33;36.30;;;21.97;;
2998;SDS011;1509;51.964;7.628;2022-12-15T11:17:45;34.23;;;21.90;;
2998;SDS011;1509;51.964;7.628;2022-12-15T11:20:46;41.03;;;23.10;;
2998;SDS011;1509;51.964;7.628;2022-12-15T11:23:32;32.50;;;23.80;;
2998;SDS011;1509;51.964;7.628;2022-12-15T11:26:19;45.37;;;23.90;;
2998;SDS011;1509;51.964;7.628;2022-12-15T11:28:53;37.93;;;23.47;;
2998;SDS011;1509;51.964;7.628;2022-12-15T11:31:33;38.00;;;24.57;;
2998;SDS011;1509;51.964;7.628;2022-12-15T11:34:02;34.10;;;23.93;;
2998;SDS011;1509;51.964;7.628;2022-12-15T11:39:32;33.50;;;25.10;;
2998;SDS011;1509;51.964;7.628;2022-12-15T11:47:23;32.97;;;24.33;;
2998;SDS011;1509;51.964;7.628;2022-12-15T11:50:03;46.30;;;24.97;;
2998;SDS011;1509;51.964;7.628;2022-12-15T12:01:12;34.07;;;22.13;;
2998;SDS011;1509;51.964;7.628;2022-12-15T12:07:07;31.77;;;20.40;;
2998;SDS011;1509;51.964;7.628;2022-12-15T12:12:37;30.13;;;20.07;;
2998;SDS011;1509;51.964;7.628;2022-12-15T12:20:20;26.77;;;19.33;;
2998;SDS011;1509;51.964;7.628;2022-12-15T12:25:30;28.80;;;18.50;;
2998;SDS011;1509;51.964;7.628;2022-12-15T12:28:06;29.60;;;20.97;;
2998;SDS011;1509;51.964;7.628;2022-12-15T12:30:44;31.33;;;19.40;;
2998;SDS011;1509;51.964;7.628;2022-12-15T12:36:12;30.70;;;20.37;;
2998;SDS011;1509;51.964;7.628;2022-12-15T12:38:40;30.73;;;20.90;;
2998;SDS011;1509;51.964;7.628;2022-12-15T12:41:35;26.20;;;19.57;;
2998;SDS011;1509;51.964;7.628;2022-12-15T12:44:24;31.20;;;21.53;;
2998;SDS011;1509;51.964;7.628;2022-12-15T12:46:55;28.90;;;19.07;;
2998;SDS011;1509;51.964;7.628;2022-12-15T12:52:01;28.77;;;19.63;;
2998;SDS011;1509;51.964;7.628;2022-12-15T12:56:58;31.80;;;21.90;;
2998;SDS011;1509;51.964;7.628;2022-12-15T13:01:53;26.90;;;20.40;;
2998;SDS011;1509;51.964;7.628;2022-12-15T13:04:47;33.47;;;20.70;;
2998;SDS011;1509;51.964;7.628;2022-12-15T13:07:35;26.07;;;20.90;;
2998;SDS011;1509;51.964;7.628;2022-12-15T13:10:19;31.50;;;20.57;;
2998;SDS011;1509;51.964;7.628;2022-12-15T13:15:36;29.30;;;21.90;;
2998;SDS011;1509;51.964;7.628;2022-12-15T13:18:14;35.83;;;20.87;;
2998;SDS011;1509;51.964;7.628;2022-12-15T13:20:47;33.90;;;21.20;;
2998;SDS011;1509;51.964;7.628;2022-12-15T13:25:46;34.33;;;21.50;;
2998;SDS011;1509;51.964;7.628;2022-12-15T13:41:41;37.80;;;23.40;;
2998;SDS011;1509;51.964;7.628;2022-12-15T13:44:11;31.47;;;20.83;;
2998;SDS011;1509;51.964;7.628;2022-12-15T13:46:43;29.03;;;21.13;;
2998;SDS011;1509;51.964;7.628;2022-12-15T13:49:12;29.93;;;20.83;;
2998;SDS011;1509;51.964;7.628;2022-12-15T13:51:41;33.40;;;23.37;;
2998;SDS011;1509;51.964;7.628;2022-12-15T13:54:15;33.63;;;21.77;;
2998;SDS011;1509;51.964;7.628;2022-12-15T13:59:35;29.77;;;20.93;;
2998;SDS011;1509;51.964;7.628;2022-12-15T14:07:36;37.50;;;26.20;;
2998;SDS011;1509;51.964;7.628;2022-12-15T14:10:03;42.03;;;24.80;;
2998;SDS011;1509;51.964;7.628;2022-12-15T14:12:39;37.87;;;23.80;;
2998;SDS011;1509;51.964;7.628;2022-12-15T14:15:10;35.57;;;24.80;;
2998;SDS011;1509;51.964;7.628;2022-12-15T14:17:38;29.80;;;21.00;;
2998;SDS011;1509;51.964;7.628;2022-12-15T14:20:11;36.30;;;23.57;;
2998;SDS011;1509;51.964;7.628;2022-12-15T14:22:42;35.00;;;23.50;;
2998;SDS011;1509;51.964;7.628;2022-12-15T14:25:21;35.90;;;24.93;;
2998;SDS011;1509;51.964;7.628;2022-12-15T14:27:55;38.53;;;23.83;;
2998;SDS011;1509;51.964;7.628;2022-12-15T14:32:53;34.83;;;22.70;;
2998;SDS011;1509;51.964;7.628;2022-12-15T14:35:32;38.20;;;24.13;;
2998;SDS011;1509;51.964;7.628;2022-12-15T14:38:00;36.30;;;25.20;;
2998;SDS011;1509;51.964;7.628;2022-12-15T14:40:29;35.10;;;23.20;;
2998;SDS011;1509;51.964;7.628;2022-12-15T14:42:57;38.00;;;25.93;;
2998;SDS011;1509;51.964;7.628;2022-12-15T14:45:27;35.07;;;24.20;;
2998;SDS011;1509;51.964;7.628;2022-12-15T14:47:59;37.03;;;23.90;;
2998;SDS011;1509;51.964;7.628;2022-12-15T14:50:30;41.37;;;24.90;;
2998;SDS011;1509;51.964;7.628;2022-12-15T14:53:00;38.67;;;23.60;;
2998;SDS011;1509;51.964;7.628;2022-12-15T14:55:33;44.03;;;24.47;;
2998;SDS011;1509;51.964;7.628;2022-12-15T14:58:01;38.03;;;23.60;;
2998;SDS011;1509;51.964;7.628;2022-12-15T15:00:49;35.70;;;23.97;;
2998;SDS011;1509;51.964;7.628;2022-12-15T15:03:17;37.23;;;23.30;;
2998;SDS011;1509;51.964;7.628;2022-12-15T15:05:54;43.40;;;25.87;;
2998;SDS011;1509;51.964;7.628;2022-12-15T15:08:26;39.33;;;24.30;;
2998;SDS011;1509;51.964;7.628;2022-12-15T15:11:01;40.60;;;26.90;;
2998;SDS011;1509;51.964;7.628;2022-12-15T15:13:43;33.40;;;23.90;;
2998;SDS011;1509;51.964;7.628;2022-12-15T15:16:13;35.73;;;25.70;;
2998;SDS011;1509;51.964;7.628;2022-12-15T15:18:47;38.77;;;25.50;;
2998;SDS011;1509;51.964;7.628;2022-12-15T15:21:22;34.67;;;24.87;;
2998;SDS011;1509;51.964;7.628;2022-12-15T15:24:00;44.87;;;25.63;;
2998;SDS011;1509;51.964;7.628;2022-12-15T15:26:28;36.50;;;25.13;;
2998;SDS011;1509;51.964;7.628;2022-12-15T15:28:55;43.00;;;24.20;;
2998;SDS011;1509;51.964;7.628;2022-12-15T15:33:51;51.00;;;27.70;;
2998;SDS011;1509;51.964;7.628;2022-12-15T15:36:18;44.80;;;29.90;;
2998;SDS011;1509;51.964;7.628;2022-12-15T15:38:45;41.87;;;27.80;;
2998;SDS011;1509;51.964;7.628;2022-12-15T15:41:17;40.30;;;25.07;;
2998;SDS011;1509;51.964;7.628;2022-12-15T15:43:45;38.23;;;24.93;;
2998;SDS011;1509;51.964;7.628;2022-12-15T15:46:19;49.77;;;28.27;;
2998;SDS011;1509;51.964;7.628;2022-12-15T15:48:48;41.70;;;25.67;;
2998;SDS011;1509;51.964;7.628;2022-12-15T15:51:19;34.40;;;23.37;;
2998;SDS011;1509;51.964;7.628;2022-12-15T15:53:45;36.60;;;25.80;;
2998;SDS011;1509;51.964;7.628;2022-12-15T15:56:12;45.53;;;25.50;;
2998;SDS011;1509;51.964;7.628;2022-12-15T15:58:40;35.97;;;26.10;;
2998;SDS011;1509;51.964;7.628;2022-12-15T16:01:07;36.07;;;24.90;;
2998;SDS011;1509;51.964;7.628;2022-12-15T16:03:34;37.83;;;25.40;;
2998;SDS011;1509;51.964;7.628;2022-12-15T16:06:00;37.80;;;26.90;;
2998;SDS011;1509;51.964;7.628;2022-12-15T16:08:27;43.10;;;27.43;;
2998;SDS011;1509;51.964;7.628;2022-12-15T16:11:00;45.07;;;29.40;;
2998;SDS011;1509;51.964;7.628;2022-12-15T16:13:26;46.20;;;27.50;;
2998;SDS011;1509;51.964;7.628;2022-12-15T16:15:52;45.23;;;28.50;;
2998;SDS011;1509;51.964;7.628;2022-12-15T16:18:18;44.73;;;27.07;;
2998;SDS011;1509;51.964;7.628;2022-12-15T16:20:45;43.93;;;26.33;;
2998;SDS011;1509;51.964;7.628;2022-12-15T16:23:15;47.63;;;28.90;;
2998;SDS011;1509;51.964;7.628;2022-12-15T16:25:52;38.67;;;26.47;;
2998;SDS011;1509;51.964;7.628;2022-12-15T16:28:24;41.63;;;26.17;;
2998;SDS011;1509;51.964;7.628;2022-12-15T16:30:52;50.43;;;28.40;;
2998;SDS011;1509;51.964;7.628;2022-12-15T16:33:18;41.53;;;27.23;;
2998;SDS011;1509;51.964;7.628;2022-12-15T16:35:44;49.33;;;28.67;;
2998;SDS011;1509;51.964;7.628;2022-12-15T16:40:47;46.67;;;26.90;;
2998;SDS011;1509;51.964;7.628;2022-12-15T16:43:17;39.60;;;26.50;;
2998;SDS011;1509;51.964;7.628;2022-12-15T16:45:44;49.07;;;27.63;;
2998;SDS011;1509;51.964;7.628;2022-12-15T16:48:12;43.83;;;26.97;;
2998;SDS011;1509;51.964;7.628;2022-12-15T16:50:40;41.93;;;29.23;;
2998;SDS011;1509;51.964;7.628;2022-12-15T16:53:17;42.23;;;27.20;;
2998;SDS011;1509;51.964;7.628;2022-12-15T16:55:49;46.40;;;27.20;;
2998;SDS011;1509;51.964;7.628;2022-12-15T16:58:18;43.27;;;25.70;;
2998;SDS011;1509;51.964;7.628;2022-12-15T17:00:44;46.00;;;26.90;;
2998;SDS011;1509;51.964;7.628;2022-12-15T17:03:11;47.27;;;27.43;;
2998;SDS011;1509;51.964;7.628;2022-12-15T17:05:38;45.77;;;26.67;;
2998;SDS011;1509;51.964;7.628;2022-12-15T17:08:05;42.07;;;27.83;;
2998;SDS011;1509;51.964;7.628;2022-12-15T17:10:31;44.93;;;27.73;;
2998;SDS011;1509;51.964;7.628;2022-12-15T17:13:05;47.17;;;28.73;;
2998;SDS011;1509;51.964;7.628;2022-12-15T17:15:38;45.00;;;26.33;;
2998;SDS011;1509;51.964;7.628;2022-12-15T17:18:04;40.93;;;27.00;;
2998;SDS011;1509;51.964;7.628;2022-12-15T17:20:30;43.10;;;27.77;;
2998;SDS011;1509;51.964;7.628;2022-12-15T17:23:01;37.43;;;24.50;;
2998;SDS011;1509;51.964;7.628;2022-12-15T17:25:34;41.13;;;26.00;;
2998;SDS011;1509;51.964;7.628;2022-12-15T17:28:06;43.40;;;27.47;;
2998;SDS011;1509;51.964;7.628;2022-12-15T17:30:44;35.40;;;25.30;;
2998;SDS011;1509;51.964;7.628;2022-12-15T17:33:20;41.43;;;26.43;;
2998;SDS011;1509;51.964;7.628;2022-12-15T17:35:50;40.40;;;28.03;;
2998;SDS011;1509;51.964;7.628;2022-12-15T17:38:25;56.50;;;30.50;;
2998;SDS011;1509;51.964;7.628;2022-12-15T17:40:51;41.90;;;29.63;;